sensor_id;sensor_type;location;lat;lon;timestamp;temperature;humidity
33149;DHT22;19506;51.040;3.856;2023-05-29T00:02:08;20.90;99.90
33149;DHT22;19506;51.040;3.856;2023-05-29T00:04:34;20.90;99.90
33149;DHT22;19506;51.040;3.856;2023-05-29T00:07:01;20.90;99.90
33149;DHT22;19506;51.040;3.856;2023-05-29T00:09:26;20.90;99.90
33149;DHT22;19506;51.040;3.856;2023-05-29T00:11:52;20.90;99.90
33149;DHT22;19506;51.040;3.856;2023-05-29T00:14:19;20.80;99.90
33149;DHT22;19506;51.040;3.856;2023-05-29T00:16:46;20.80;99.90
33149;DHT22;19506;51.040;3.856;2023-05-29T00:19:13;20.80;99.90
33149;DHT22;19506;51.040;3.856;2023-05-29T00:21:39;20.80;99.90
33149;DHT22;19506;51.040;3.856;2023-05-29T00:24:06;20.80;99.90
33149;DHT22;19506;51.040;3.856;2023-05-29T00:26:31;20.80;99.90
33149;DHT22;19506;51.040;3.856;2023-05-29T00:28:57;20.80;99.90
33149;DHT22;19506;51.040;3.856;2023-05-29T00:31:22;20.80;99.90
33149;DHT22;19506;51.040;3.856;2023-05-29T00:33:49;20.80;99.90
33149;DHT22;19506;51.040;3.856;2023-05-29T00:36:15;20.80;99.90
33149;DHT22;19506;51.040;3.856;2023-05-29T00:38:41;20.80;99.90
33149;DHT22;19506;51.040;3.856;2023-05-29T00:41:07;20.80;99.90
33149;DHT22;19506;51.040;3.856;2023-05-29T00:43:33;20.80;99.90
33149;DHT22;19506;51.040;3.856;2023-05-29T00:45:59;20.80;99.90
33149;DHT22;19506;51.040;3.856;2023-05-29T00:48:25;20.80;99.90
33149;DHT22;19506;51.040;3.856;2023-05-29T00:50:51;20.80;99.90
33149;DHT22;19506;51.040;3.856;2023-05-29T00:53:17;20.80;99.90
33149;DHT22;19506;51.040;3.856;2023-05-29T00:55:43;20.80;99.90
33149;DHT22;19506;51.040;3.856;2023-05-29T00:58:09;20.80;99.90
33149;DHT22;19506;51.040;3.856;2023-05-29T01:00:34;20.80;99.90
33149;DHT22;19506;51.040;3.856;2023-05-29T01:03:03;20.70;99.90
33149;DHT22;19506;51.040;3.856;2023-05-29T01:05:33;20.80;99.90
33149;DHT22;19506;51.040;3.856;2023-05-29T01:07:59;20.70;99.90
33149;DHT22;19506;51.040;3.856;2023-05-29T01:10:25;20.70;99.90
33149;DHT22;19506;51.040;3.856;2023-05-29T01:12:59;20.70;99.90
33149;DHT22;19506;51.040;3.856;2023-05-29T01:15:51;20.70;99.90
33149;DHT22;19506;51.040;3.856;2023-05-29T01:18:46;20.70;99.90
33149;DHT22;19506;51.040;3.856;2023-05-29T01:21:41;20.70;99.90
33149;DHT22;19506;51.040;3.856;2023-05-29T01:27:00;20.70;99.90
33149;DHT22;19506;51.040;3.856;2023-05-29T01:29:29;20.70;99.90
33149;DHT22;19506;51.040;3.856;2023-05-29T01:31:57;20.70;99.90
33149;DHT22;19506;51.040;3.856;2023-05-29T01:34:23;20.70;99.90
33149;DHT22;19506;51.040;3.856;2023-05-29T01:36:49;20.70;99.90
33149;DHT22;19506;51.040;3.856;2023-05-29T01:39:15;20.70;99.90
33149;DHT22;19506;51.040;3.856;2023-05-29T01:41:43;20.60;99.90
33149;DHT22;19506;51.040;3.856;2023-05-29T01:44:10;20.70;99.90
33149;DHT22;19506;51.040;3.856;2023-05-29T01:46:42;20.70;99.90
33149;DHT22;19506;51.040;3.856;2023-05-29T01:49:09;20.70;99.90
33149;DHT22;19506;51.040;3.856;2023-05-29T01:51:37;20.70;99.90
33149;DHT22;19506;51.040;3.856;2023-05-29T01:54:03;20.60;99.90
33149;DHT22;19506;51.040;3.856;2023-05-29T01:56:29;20.70;99.90
33149;DHT22;19506;51.040;3.856;2023-05-29T01:58:57;20.60;99.90
33149;DHT22;19506;51.040;3.856;2023-05-29T02:01:23;20.60;99.90
33149;DHT22;19506;51.040;3.856;2023-05-29T02:03:50;20.60;99.90
33149;DHT22;19506;51.040;3.856;2023-05-29T02:06:16;20.60;99.90
33149;DHT22;19506;51.040;3.856;2023-05-29T02:08:42;20.60;99.90
33149;DHT22;19506;51.040;3.856;2023-05-29T02:11:08;20.60;99.90
33149;DHT22;19506;51.040;3.856;2023-05-29T02:13:34;20.60;99.90
33149;DHT22;19506;51.040;3.856;2023-05-29T02:15:59;20.60;99.90
33149;DHT22;19506;51.040;3.856;2023-05-29T02:18:25;20.60;99.90
33149;DHT22;19506;51.040;3.856;2023-05-29T02:20:51;20.50;99.90
33149;DHT22;19506;51.040;3.856;2023-05-29T02:23:16;20.50;99.90
33149;DHT22;19506;51.040;3.856;2023-05-29T02:25:42;20.50;99.90
33149;DHT22;19506;51.040;3.856;2023-05-29T02:28:08;20.50;99.90
33149;DHT22;19506;51.040;3.856;2023-05-29T02:30:34;20.50;99.90
33149;DHT22;19506;51.040;3.856;2023-05-29T02:33:00;20.50;99.90
33149;DHT22;19506;51.040;3.856;2023-05-29T02:35:26;20.50;99.90
33149;DHT22;19506;51.040;3.856;2023-05-29T02:37:52;20.50;99.90
33149;DHT22;19506;51.040;3.856;2023-05-29T02:40:18;20.50;99.90
33149;DHT22;19506;51.040;3.856;2023-05-29T02:42:44;20.50;99.90
33149;DHT22;19506;51.040;3.856;2023-05-29T02:45:10;20.50;99.90
33149;DHT22;19506;51.040;3.856;2023-05-29T02:47:37;20.50;99.90
33149;DHT22;19506;51.040;3.856;2023-05-29T02:50:03;20.50;99.90
33149;DHT22;19506;51.040;3.856;2023-05-29T02:52:31;20.50;99.90
33149;DHT22;19506;51.040;3.856;2023-05-29T02:54:57;20.50;99.90
33149;DHT22;19506;51.040;3.856;2023-05-29T02:57:24;20.50;99.90
33149;DHT22;19506;51.040;3.856;2023-05-29T02:59:50;20.50;99.90
33149;DHT22;19506;51.040;3.856;2023-05-29T03:02:17;20.40;99.90
33149;DHT22;19506;51.040;3.856;2023-05-29T03:04:43;20.40;99.90
33149;DHT22;19506;51.040;3.856;2023-05-29T03:07:09;20.50;99.90
33149;DHT22;19506;51.040;3.856;2023-05-29T03:09:35;20.40;99.90
33149;DHT22;19506;51.040;3.856;2023-05-29T03:12:01;20.40;99.90
33149;DHT22;19506;51.040;3.856;2023-05-29T03:14:27;20.40;99.90
33149;DHT22;19506;51.040;3.856;2023-05-29T03:16:53;20.40;99.90
33149;DHT22;19506;51.040;3.856;2023-05-29T03:19:19;20.40;99.90
33149;DHT22;19506;51.040;3.856;2023-05-29T03:21:45;20.40;99.90
33149;DHT22;19506;51.040;3.856;2023-05-29T03:24:11;20.40;99.90
33149;DHT22;19506;51.040;3.856;2023-05-29T03:26:39;20.40;99.90
33149;DHT22;19506;51.040;3.856;2023-05-29T03:29:04;20.40;99.90
33149;DHT22;19506;51.040;3.856;2023-05-29T03:31:31;20.40;99.90
33149;DHT22;19506;51.040;3.856;2023-05-29T03:33:57;20.40;99.90
33149;DHT22;19506;51.040;3.856;2023-05-29T03:36:23;20.40;99.90
33149;DHT22;19506;51.040;3.856;2023-05-29T03:38:49;20.30;99.90
33149;DHT22;19506;51.040;3.856;2023-05-29T03:41:15;20.40;99.90
33149;DHT22;19506;51.040;3.856;2023-05-29T03:43:40;20.40;99.90
33149;DHT22;19506;51.040;3.856;2023-05-29T03:46:06;20.40;99.90
33149;DHT22;19506;51.040;3.856;2023-05-29T03:48:32;20.40;99.90
33149;DHT22;19506;51.040;3.856;2023-05-29T03:50:58;20.40;99.90
33149;DHT22;19506;51.040;3.856;2023-05-29T03:53:23;20.40;99.90
33149;DHT22;19506;51.040;3.856;2023-05-29T03:55:49;20.30;99.90
33149;DHT22;19506;51.040;3.856;2023-05-29T03:58:14;20.30;99.90
33149;DHT22;19506;51.040;3.856;2023-05-29T04:00:41;20.30;99.90
33149;DHT22;19506;51.040;3.856;2023-05-29T04:03:07;20.30;99.90
33149;DHT22;19506;51.040;3.856;2023-05-29T04:05:33;20.30;99.90
33149;DHT22;19506;51.040;3.856;2023-05-29T04:07:58;20.30;99.90
33149;DHT22;19506;51.040;3.856;2023-05-29T04:10:24;20.30;99.90
33149;DHT22;19506;51.040;3.856;2023-05-29T04:12:50;20.30;99.90
33149;DHT22;19506;51.040;3.856;2023-05-29T04:15:16;20.30;99.90
33149;DHT22;19506;51.040;3.856;2023-05-29T04:17:42;20.30;99.90
33149;DHT22;19506;51.040;3.856;2023-05-29T04:20:08;20.30;99.90
33149;DHT22;19506;51.040;3.856;2023-05-29T04:22:37;20.30;99.90
33149;DHT22;19506;51.040;3.856;2023-05-29T04:25:04;20.30;99.90
33149;DHT22;19506;51.040;3.856;2023-05-29T04:27:33;20.20;99.90
33149;DHT22;19506;51.040;3.856;2023-05-29T04:30:06;20.30;99.90
33149;DHT22;19506;51.040;3.856;2023-05-29T04:32:32;20.20;99.90
33149;DHT22;19506;51.040;3.856;2023-05-29T04:35:01;20.20;99.90
33149;DHT22;19506;51.040;3.856;2023-05-29T04:37:31;20.20;99.90
33149;DHT22;19506;51.040;3.856;2023-05-29T04:40:03;20.30;99.90
33149;DHT22;19506;51.040;3.856;2023-05-29T04:42:32;20.20;99.90
33149;DHT22;19506;51.040;3.856;2023-05-29T04:44:59;20.20;99.90
33149;DHT22;19506;51.040;3.856;2023-05-29T04:47:26;20.20;99.90
33149;DHT22;19506;51.040;3.856;2023-05-29T04:49:52;20.20;99.90
33149;DHT22;19506;51.040;3.856;2023-05-29T04:52:18;20.20;99.90
33149;DHT22;19506;51.040;3.856;2023-05-29T04:54:46;20.20;99.90
33149;DHT22;19506;51.040;3.856;2023-05-29T04:57:12;20.20;99.90
33149;DHT22;19506;51.040;3.856;2023-05-29T04:59:38;20.20;99.90
33149;DHT22;19506;51.040;3.856;2023-05-29T05:02:04;20.10;99.90
33149;DHT22;19506;51.040;3.856;2023-05-29T05:04:29;20.20;99.90
33149;DHT22;19506;51.040;3.856;2023-05-29T05:06:55;20.10;99.90
33149;DHT22;19506;51.040;3.856;2023-05-29T05:09:21;20.20;99.90
33149;DHT22;19506;51.040;3.856;2023-05-29T05:11:46;20.10;99.90
33149;DHT22;19506;51.040;3.856;2023-05-29T05:14:12;20.10;99.90
33149;DHT22;19506;51.040;3.856;2023-05-29T05:16:38;20.20;99.90
33149;DHT22;19506;51.040;3.856;2023-05-29T05:19:03;20.10;99.90
33149;DHT22;19506;51.040;3.856;2023-05-29T05:21:29;20.10;99.90
33149;DHT22;19506;51.040;3.856;2023-05-29T05:23:58;20.10;99.90
33149;DHT22;19506;51.040;3.856;2023-05-29T05:26:23;20.10;99.90
33149;DHT22;19506;51.040;3.856;2023-05-29T05:28:51;20.10;99.90
33149;DHT22;19506;51.040;3.856;2023-05-29T05:31:16;20.10;99.90
33149;DHT22;19506;51.040;3.856;2023-05-29T05:33:42;20.10;99.90
33149;DHT22;19506;51.040;3.856;2023-05-29T05:36:07;20.10;99.90
33149;DHT22;19506;51.040;3.856;2023-05-29T05:38:33;20.10;99.90
33149;DHT22;19506;51.040;3.856;2023-05-29T05:40:59;20.10;99.90
33149;DHT22;19506;51.040;3.856;2023-05-29T05:43:24;20.10;99.90
33149;DHT22;19506;51.040;3.856;2023-05-29T05:45:52;20.10;99.90
33149;DHT22;19506;51.040;3.856;2023-05-29T05:48:18;20.10;99.90
33149;DHT22;19506;51.040;3.856;2023-05-29T05:55:37;20.00;99.90
33149;DHT22;19506;51.040;3.856;2023-05-29T05:58:02;20.00;99.90
33149;DHT22;19506;51.040;3.856;2023-05-29T06:00:28;20.00;99.90
33149;DHT22;19506;51.040;3.856;2023-05-29T06:02:53;20.00;99.90
33149;DHT22;19506;51.040;3.856;2023-05-29T06:05:19;20.00;99.90
33149;DHT22;19506;51.040;3.856;2023-05-29T06:07:45;20.10;99.90
33149;DHT22;19506;51.040;3.856;2023-05-29T06:10:10;20.10;99.90
33149;DHT22;19506;51.040;3.856;2023-05-29T06:12:36;20.30;99.90
33149;DHT22;19506;51.040;3.856;2023-05-29T06:15:02;20.20;99.90
33149;DHT22;19506;51.040;3.856;2023-05-29T06:17:29;20.20;99.90
33149;DHT22;19506;51.040;3.856;2023-05-29T06:22:21;20.30;99.90
33149;DHT22;19506;51.040;3.856;2023-05-29T06:27:12;20.30;99.90
33149;DHT22;19506;51.040;3.856;2023-05-29T06:29:38;20.40;99.90
33149;DHT22;19506;51.040;3.856;2023-05-29T06:32:04;20.50;99.90
33149;DHT22;19506;51.040;3.856;2023-05-29T06:34:29;20.50;99.90
33149;DHT22;19506;51.040;3.856;2023-05-29T06:36:55;20.60;99.90
33149;DHT22;19506;51.040;3.856;2023-05-29T06:39:21;20.70;99.90
33149;DHT22;19506;51.040;3.856;2023-05-29T06:41:47;20.70;99.90
33149;DHT22;19506;51.040;3.856;2023-05-29T06:44:13;20.70;99.90
33149;DHT22;19506;51.040;3.856;2023-05-29T06:46:38;20.70;99.90
33149;DHT22;19506;51.040;3.856;2023-05-29T06:49:04;20.70;99.90
33149;DHT22;19506;51.040;3.856;2023-05-29T06:51:30;20.70;99.90
33149;DHT22;19506;51.040;3.856;2023-05-29T06:53:57;20.70;99.90
33149;DHT22;19506;51.040;3.856;2023-05-29T06:56:23;20.80;99.90
33149;DHT22;19506;51.040;3.856;2023-05-29T06:58:49;20.90;99.90
33149;DHT22;19506;51.040;3.856;2023-05-29T07:01:14;20.90;99.90
33149;DHT22;19506;51.040;3.856;2023-05-29T07:03:42;20.90;99.90
33149;DHT22;19506;51.040;3.856;2023-05-29T07:06:10;21.00;99.90
33149;DHT22;19506;51.040;3.856;2023-05-29T07:08:36;20.90;99.90
33149;DHT22;19506;51.040;3.856;2023-05-29T07:11:01;21.00;99.90
33149;DHT22;19506;51.040;3.856;2023-05-29T07:13:27;21.00;99.90
33149;DHT22;19506;51.040;3.856;2023-05-29T07:15:53;21.00;99.90
33149;DHT22;19506;51.040;3.856;2023-05-29T07:18:18;21.10;99.90
33149;DHT22;19506;51.040;3.856;2023-05-29T07:20:44;21.10;99.90
33149;DHT22;19506;51.040;3.856;2023-05-29T07:23:10;21.10;99.90
33149;DHT22;19506;51.040;3.856;2023-05-29T07:25:36;21.20;99.90
33149;DHT22;19506;51.040;3.856;2023-05-29T07:28:01;21.20;99.90
33149;DHT22;19506;51.040;3.856;2023-05-29T07:30:27;21.10;99.90
33149;DHT22;19506;51.040;3.856;2023-05-29T07:32:53;21.10;99.90
33149;DHT22;19506;51.040;3.856;2023-05-29T07:35:18;21.10;99.90
33149;DHT22;19506;51.040;3.856;2023-05-29T07:37:44;21.10;99.90
33149;DHT22;19506;51.040;3.856;2023-05-29T07:40:10;21.20;99.90
33149;DHT22;19506;51.040;3.856;2023-05-29T07:42:35;21.20;99.90
33149;DHT22;19506;51.040;3.856;2023-05-29T07:45:01;21.20;99.90
33149;DHT22;19506;51.040;3.856;2023-05-29T07:47:27;21.20;99.90
33149;DHT22;19506;51.040;3.856;2023-05-29T07:49:53;21.20;99.90
33149;DHT22;19506;51.040;3.856;2023-05-29T07:52:25;21.00;99.90
33149;DHT22;19506;51.040;3.856;2023-05-29T07:54:52;20.50;99.90
33149;DHT22;19506;51.040;3.856;2023-05-29T07:57:18;20.30;99.90
33149;DHT22;19506;51.040;3.856;2023-05-29T07:59:44;20.20;99.90
33149;DHT22;19506;51.040;3.856;2023-05-29T08:02:10;20.20;99.90
33149;DHT22;19506;51.040;3.856;2023-05-29T08:04:38;20.20;99.90
33149;DHT22;19506;51.040;3.856;2023-05-29T08:07:10;20.40;99.90
33149;DHT22;19506;51.040;3.856;2023-05-29T08:09:42;20.50;99.90
33149;DHT22;19506;51.040;3.856;2023-05-29T08:12:08;20.60;99.90
33149;DHT22;19506;51.040;3.856;2023-05-29T08:14:35;20.30;99.90
33149;DHT22;19506;51.040;3.856;2023-05-29T08:17:04;20.10;99.90
33149;DHT22;19506;51.040;3.856;2023-05-29T08:19:49;20.10;99.90
33149;DHT22;19506;51.040;3.856;2023-05-29T08:22:16;20.10;99.90
33149;DHT22;19506;51.040;3.856;2023-05-29T08:24:43;20.10;99.90
33149;DHT22;19506;51.040;3.856;2023-05-29T08:27:12;20.00;99.90
33149;DHT22;19506;51.040;3.856;2023-05-29T08:29:38;20.10;99.90
33149;DHT22;19506;51.040;3.856;2023-05-29T08:32:04;20.10;99.90
33149;DHT22;19506;51.040;3.856;2023-05-29T08:34:36;20.10;99.90
33149;DHT22;19506;51.040;3.856;2023-05-29T08:37:03;20.00;99.90
33149;DHT22;19506;51.040;3.856;2023-05-29T08:39:31;20.10;99.90
33149;DHT22;19506;51.040;3.856;2023-05-29T08:44:48;20.00;99.90
33149;DHT22;19506;51.040;3.856;2023-05-29T08:47:17;20.00;99.90
33149;DHT22;19506;51.040;3.856;2023-05-29T08:49:53;20.00;99.90
33149;DHT22;19506;51.040;3.856;2023-05-29T08:52:21;20.00;99.90
33149;DHT22;19506;51.040;3.856;2023-05-29T08:54:48;20.00;99.90
33149;DHT22;19506;51.040;3.856;2023-05-29T08:57:14;20.00;99.90
33149;DHT22;19506;51.040;3.856;2023-05-29T08:59:42;20.00;99.90
33149;DHT22;19506;51.040;3.856;2023-05-29T09:02:11;20.00;99.90
33149;DHT22;19506;51.040;3.856;2023-05-29T09:04:41;19.90;99.90
33149;DHT22;19506;51.040;3.856;2023-05-29T09:07:11;19.90;99.90
33149;DHT22;19506;51.040;3.856;2023-05-29T09:09:36;19.90;99.90
33149;DHT22;19506;51.040;3.856;2023-05-29T09:12:03;19.90;99.90
33149;DHT22;19506;51.040;3.856;2023-05-29T09:14:47;19.90;99.90
33149;DHT22;19506;51.040;3.856;2023-05-29T09:17:13;19.90;99.90
33149;DHT22;19506;51.040;3.856;2023-05-29T09:19:40;19.90;99.90
33149;DHT22;19506;51.040;3.856;2023-05-29T09:22:15;20.00;99.90
33149;DHT22;19506;51.040;3.856;2023-05-29T09:24:46;20.00;99.90
33149;DHT22;19506;51.040;3.856;2023-05-29T09:27:12;20.00;99.90
33149;DHT22;19506;51.040;3.856;2023-05-29T09:29:39;19.90;99.90
33149;DHT22;19506;51.040;3.856;2023-05-29T09:32:09;20.00;99.90
33149;DHT22;19506;51.040;3.856;2023-05-29T09:34:36;20.00;99.90
33149;DHT22;19506;51.040;3.856;2023-05-29T09:37:03;20.00;99.90
33149;DHT22;19506;51.040;3.856;2023-05-29T09:39:37;20.00;99.90
33149;DHT22;19506;51.040;3.856;2023-05-29T09:42:09;20.00;99.90
33149;DHT22;19506;51.040;3.856;2023-05-29T09:44:35;19.90;99.90
33149;DHT22;19506;51.040;3.856;2023-05-29T09:47:01;19.90;99.90
33149;DHT22;19506;51.040;3.856;2023-05-29T09:49:28;19.90;99.90
33149;DHT22;19506;51.040;3.856;2023-05-29T09:51:56;19.90;99.90
33149;DHT22;19506;51.040;3.856;2023-05-29T09:54:27;20.00;99.90
33149;DHT22;19506;51.040;3.856;2023-05-29T09:56:57;19.90;99.90
33149;DHT22;19506;51.040;3.856;2023-05-29T09:59:24;19.90;99.90
33149;DHT22;19506;51.040;3.856;2023-05-29T10:02:02;19.90;99.90
33149;DHT22;19506;51.040;3.856;2023-05-29T10:04:31;19.90;99.90
33149;DHT22;19506;51.040;3.856;2023-05-29T10:07:38;19.90;99.90
33149;DHT22;19506;51.040;3.856;2023-05-29T10:10:05;19.90;99.90
33149;DHT22;19506;51.040;3.856;2023-05-29T10:12:36;19.90;99.90
33149;DHT22;19506;51.040;3.856;2023-05-29T10:15:12;19.90;99.90
33149;DHT22;19506;51.040;3.856;2023-05-29T10:17:50;19.90;99.90
33149;DHT22;19506;51.040;3.856;2023-05-29T10:20:20;19.90;99.90
33149;DHT22;19506;51.040;3.856;2023-05-29T10:22:49;19.90;99.90
33149;DHT22;19506;51.040;3.856;2023-05-29T10:25:19;19.90;99.90
33149;DHT22;19506;51.040;3.856;2023-05-29T10:27:46;19.90;99.90
33149;DHT22;19506;51.040;3.856;2023-05-29T10:30:29;19.90;99.90
33149;DHT22;19506;51.040;3.856;2023-05-29T10:38:36;20.20;99.90
33149;DHT22;19506;51.040;3.856;2023-05-29T10:44:00;20.20;99.90
33149;DHT22;19506;51.040;3.856;2023-05-29T10:49:17;20.40;99.90
33149;DHT22;19506;51.040;3.856;2023-05-29T10:54:10;20.50;99.90
33149;DHT22;19506;51.040;3.856;2023-05-29T10:56:36;20.40;99.90
33149;DHT22;19506;51.040;3.856;2023-05-29T10:59:02;20.40;99.90
33149;DHT22;19506;51.040;3.856;2023-05-29T11:01:31;20.40;99.90
33149;DHT22;19506;51.040;3.856;2023-05-29T11:06:47;20.40;99.90
33149;DHT22;19506;51.040;3.856;2023-05-29T11:09:33;20.60;99.90
33149;DHT22;19506;51.040;3.856;2023-05-29T11:15:08;20.80;99.90
33149;DHT22;19506;51.040;3.856;2023-05-29T11:20:16;20.60;99.90
33149;DHT22;19506;51.040;3.856;2023-05-29T11:23:01;20.60;99.90
33149;DHT22;19506;51.040;3.856;2023-05-29T11:25:28;20.60;99.90
33149;DHT22;19506;51.040;3.856;2023-05-29T11:27:54;20.60;99.90
33149;DHT22;19506;51.040;3.856;2023-05-29T11:30:23;20.60;99.90
33149;DHT22;19506;51.040;3.856;2023-05-29T11:32:49;20.50;99.90
33149;DHT22;19506;51.040;3.856;2023-05-29T11:35:19;20.50;99.90
33149;DHT22;19506;51.040;3.856;2023-05-29T11:37:47;20.50;99.90
33149;DHT22;19506;51.040;3.856;2023-05-29T11:40:14;20.50;99.90
33149;DHT22;19506;51.040;3.856;2023-05-29T11:42:45;20.50;99.90
33149;DHT22;19506;51.040;3.856;2023-05-29T11:45:15;20.50;99.90
33149;DHT22;19506;51.040;3.856;2023-05-29T11:48:02;20.50;99.90
33149;DHT22;19506;51.040;3.856;2023-05-29T11:50:32;20.40;99.90
33149;DHT22;19506;51.040;3.856;2023-05-29T11:52:59;20.50;99.90
33149;DHT22;19506;51.040;3.856;2023-05-29T11:55:26;20.40;99.90
33149;DHT22;19506;51.040;3.856;2023-05-29T11:57:57;20.40;99.90
33149;DHT22;19506;51.040;3.856;2023-05-29T12:00:23;20.40;99.90
33149;DHT22;19506;51.040;3.856;2023-05-29T12:02:50;20.40;99.90
33149;DHT22;19506;51.040;3.856;2023-05-29T12:05:17;20.30;99.90
33149;DHT22;19506;51.040;3.856;2023-05-29T12:07:51;20.40;99.90
33149;DHT22;19506;51.040;3.856;2023-05-29T12:10:19;20.40;99.90
33149;DHT22;19506;51.040;3.856;2023-05-29T12:12:53;20.40;99.90
33149;DHT22;19506;51.040;3.856;2023-05-29T12:15:19;20.40;99.90
33149;DHT22;19506;51.040;3.856;2023-05-29T12:17:48;20.40;99.90
33149;DHT22;19506;51.040;3.856;2023-05-29T12:20:15;20.40;99.90
33149;DHT22;19506;51.040;3.856;2023-05-29T12:22:42;20.40;99.90
33149;DHT22;19506;51.040;3.856;2023-05-29T12:25:16;20.40;99.90
33149;DHT22;19506;51.040;3.856;2023-05-29T12:27:43;20.40;99.90
33149;DHT22;19506;51.040;3.856;2023-05-29T12:30:13;20.40;99.90
33149;DHT22;19506;51.040;3.856;2023-05-29T12:32:47;20.40;99.90
33149;DHT22;19506;51.040;3.856;2023-05-29T12:37:53;20.30;99.90
33149;DHT22;19506;51.040;3.856;2023-05-29T12:40:39;20.30;99.90
33149;DHT22;19506;51.040;3.856;2023-05-29T12:43:09;20.30;99.90
33149;DHT22;19506;51.040;3.856;2023-05-29T12:45:35;20.30;99.90
33149;DHT22;19506;51.040;3.856;2023-05-29T12:48:07;20.30;99.90
33149;DHT22;19506;51.040;3.856;2023-05-29T12:50:34;20.30;99.90
33149;DHT22;19506;51.040;3.856;2023-05-29T12:53:15;20.30;99.90
33149;DHT22;19506;51.040;3.856;2023-05-29T12:55:42;20.30;99.90
33149;DHT22;19506;51.040;3.856;2023-05-29T12:58:13;20.30;99.90
33149;DHT22;19506;51.040;3.856;2023-05-29T13:00:41;20.30;99.90
33149;DHT22;19506;51.040;3.856;2023-05-29T13:03:08;20.30;99.90
33149;DHT22;19506;51.040;3.856;2023-05-29T13:05:34;20.30;99.90
33149;DHT22;19506;51.040;3.856;2023-05-29T13:08:00;20.30;99.90
33149;DHT22;19506;51.040;3.856;2023-05-29T13:10:27;20.30;99.90
33149;DHT22;19506;51.040;3.856;2023-05-29T13:12:56;20.30;99.90
33149;DHT22;19506;51.040;3.856;2023-05-29T13:15:24;20.30;99.90
33149;DHT22;19506;51.040;3.856;2023-05-29T13:17:52;20.30;99.90
33149;DHT22;19506;51.040;3.856;2023-05-29T13:20:18;20.30;99.90
33149;DHT22;19506;51.040;3.856;2023-05-29T13:22:46;20.30;99.90
33149;DHT22;19506;51.040;3.856;2023-05-29T13:25:13;20.30;99.90
33149;DHT22;19506;51.040;3.856;2023-05-29T13:27:42;20.30;99.90
33149;DHT22;19506;51.040;3.856;2023-05-29T13:30:09;20.30;99.90
33149;DHT22;19506;51.040;3.856;2023-05-29T13:32:35;20.30;99.90
33149;DHT22;19506;51.040;3.856;2023-05-29T13:35:01;20.30;99.90
33149;DHT22;19506;51.040;3.856;2023-05-29T13:37:27;20.30;99.90
33149;DHT22;19506;51.040;3.856;2023-05-29T13:39:53;20.30;99.90
33149;DHT22;19506;51.040;3.856;2023-05-29T13:42:20;20.20;99.90
33149;DHT22;19506;51.040;3.856;2023-05-29T13:44:46;20.20;99.90
33149;DHT22;19506;51.040;3.856;2023-05-29T13:47:12;20.20;99.90
33149;DHT22;19506;51.040;3.856;2023-05-29T13:49:37;20.20;99.90
33149;DHT22;19506;51.040;3.856;2023-05-29T13:52:03;20.20;99.90
33149;DHT22;19506;51.040;3.856;2023-05-29T13:54:29;20.20;99.90
33149;DHT22;19506;51.040;3.856;2023-05-29T13:56:58;20.20;99.90
33149;DHT22;19506;51.040;3.856;2023-05-29T13:59:24;20.20;99.90
33149;DHT22;19506;51.040;3.856;2023-05-29T14:01:50;20.20;99.90
33149;DHT22;19506;51.040;3.856;2023-05-29T14:04:16;20.20;99.90
33149;DHT22;19506;51.040;3.856;2023-05-29T14:06:42;20.10;99.90
33149;DHT22;19506;51.040;3.856;2023-05-29T14:09:07;20.20;99.90
33149;DHT22;19506;51.040;3.856;2023-05-29T14:11:36;20.20;99.90
33149;DHT22;19506;51.040;3.856;2023-05-29T14:14:03;20.20;99.90
33149;DHT22;19506;51.040;3.856;2023-05-29T14:21:29;20.40;99.90
33149;DHT22;19506;51.040;3.856;2023-05-29T14:23:54;20.40;99.90
33149;DHT22;19506;51.040;3.856;2023-05-29T14:26:20;20.40;99.90
33149;DHT22;19506;51.040;3.856;2023-05-29T14:33:38;20.60;99.90
33149;DHT22;19506;51.040;3.856;2023-05-29T14:40:55;20.50;99.90
33149;DHT22;19506;51.040;3.856;2023-05-29T14:43:21;20.60;99.90
33149;DHT22;19506;51.040;3.856;2023-05-29T14:45:47;20.60;99.90
33149;DHT22;19506;51.040;3.856;2023-05-29T14:48:12;20.70;99.90
33149;DHT22;19506;51.040;3.856;2023-05-29T14:50:38;20.70;99.90
33149;DHT22;19506;51.040;3.856;2023-05-29T14:53:04;20.80;99.90
33149;DHT22;19506;51.040;3.856;2023-05-29T14:55:30;20.80;99.90
33149;DHT22;19506;51.040;3.856;2023-05-29T14:58:06;20.70;99.90
33149;DHT22;19506;51.040;3.856;2023-05-29T15:00:32;20.70;99.90
33149;DHT22;19506;51.040;3.856;2023-05-29T15:02:58;20.70;99.90
33149;DHT22;19506;51.040;3.856;2023-05-29T15:05:25;20.70;99.90
33149;DHT22;19506;51.040;3.856;2023-05-29T15:07:51;20.70;99.90
33149;DHT22;19506;51.040;3.856;2023-05-29T15:10:17;20.70;99.90
33149;DHT22;19506;51.040;3.856;2023-05-29T15:12:45;20.70;99.90
33149;DHT22;19506;51.040;3.856;2023-05-29T15:15:11;20.70;99.90
33149;DHT22;19506;51.040;3.856;2023-05-29T15:17:37;20.70;99.90
33149;DHT22;19506;51.040;3.856;2023-05-29T15:20:04;20.60;99.90
33149;DHT22;19506;51.040;3.856;2023-05-29T15:22:30;20.60;99.90
33149;DHT22;19506;51.040;3.856;2023-05-29T15:24:55;20.60;99.90
33149;DHT22;19506;51.040;3.856;2023-05-29T15:27:21;20.60;99.90
33149;DHT22;19506;51.040;3.856;2023-05-29T15:29:46;20.60;99.90
33149;DHT22;19506;51.040;3.856;2023-05-29T15:32:12;20.50;99.90
33149;DHT22;19506;51.040;3.856;2023-05-29T15:34:38;20.50;99.90
33149;DHT22;19506;51.040;3.856;2023-05-29T15:37:06;20.50;99.90
33149;DHT22;19506;51.040;3.856;2023-05-29T15:39:31;20.50;99.90
33149;DHT22;19506;51.040;3.856;2023-05-29T15:41:57;20.50;99.90
33149;DHT22;19506;51.040;3.856;2023-05-29T15:44:22;20.60;99.90
33149;DHT22;19506;51.040;3.856;2023-05-29T15:46:48;20.50;99.90
33149;DHT22;19506;51.040;3.856;2023-05-29T15:49:14;20.50;99.90
33149;DHT22;19506;51.040;3.856;2023-05-29T15:51:39;20.50;99.90
33149;DHT22;19506;51.040;3.856;2023-05-29T15:54:06;20.50;99.90
33149;DHT22;19506;51.040;3.856;2023-05-29T15:56:32;20.50;99.90
33149;DHT22;19506;51.040;3.856;2023-05-29T15:58:58;20.50;99.90
33149;DHT22;19506;51.040;3.856;2023-05-29T16:01:24;20.50;99.90
33149;DHT22;19506;51.040;3.856;2023-05-29T16:03:49;20.50;99.90
33149;DHT22;19506;51.040;3.856;2023-05-29T16:06:15;20.50;99.90
33149;DHT22;19506;51.040;3.856;2023-05-29T16:08:41;20.50;99.90
33149;DHT22;19506;51.040;3.856;2023-05-29T16:11:07;20.40;99.90
33149;DHT22;19506;51.040;3.856;2023-05-29T16:13:33;20.40;99.90
33149;DHT22;19506;51.040;3.856;2023-05-29T16:16:00;20.40;99.90
33149;DHT22;19506;51.040;3.856;2023-05-29T16:18:27;20.50;99.90
33149;DHT22;19506;51.040;3.856;2023-05-29T16:20:53;20.40;99.90
33149;DHT22;19506;51.040;3.856;2023-05-29T16:23:19;20.40;99.90
33149;DHT22;19506;51.040;3.856;2023-05-29T16:25:45;20.40;99.90
33149;DHT22;19506;51.040;3.856;2023-05-29T16:28:10;20.30;99.90